Time;durP1;ratioP1;P1;durP2;ratioP2;P2;SDS_P1;SDS_P2;PMS_P1;PMS_P2;Temp;Humidity;BMP_temperature;BMP_pressure;BME280_temperature;BME280_humidity;BME280_pressure;Samples;Min_cycle;Max_cycle;Signal;HPM_P1;HPM_P2
2021/05/09 00:00:28;;;;;;;;;;;;;;;-142.75;66.21;76656.91;5096823;28;20432;-82
2021/05/09 00:02:54;;;;;;;;;;;;;;;-142.75;66.61;76666.75;5096529;28;19942;-83
2021/05/09 00:05:19;;;;;;;;;;;;;;;-142.75;66.58;76672.66;5114891;28;19923;-82
2021/05/09 00:07:44;;;;;;;;;;;;;;;-142.75;66.88;76656.91;5115749;28;19930;-82
2021/05/09 00:10:10;;;;;;;;;;;;;;;-142.75;66.73;76672.66;5114410;28;20284;-81
2021/05/09 00:12:36;;;;;;;;;;;;;;;-142.75;66.82;76672.66;5095958;28;19981;-82
2021/05/09 00:15:02;;;;;;;;;;;;;;;-142.75;67.30;76666.75;5097544;28;19978;-82
2021/05/09 00:17:27;;;;;;;;;;;;;;;-142.75;67.11;76664.78;5097657;28;20003;-78
2021/05/09 00:19:52;;;;;;;;;;;;;;;-142.75;66.89;76660.84;5114574;28;19924;-77
2021/05/09 00:22:17;;;;;;;;;;;;;;;-142.75;66.79;76662.81;5096187;28;19946;-78
2021/05/09 00:24:43;;;;;;;;;;;;;;;-142.75;66.47;76635.25;5115094;28;19923;-78
2021/05/09 00:27:08;;;;;;;;;;;;;;;-142.75;66.13;76637.22;5115856;28;19961;-78
2021/05/09 00:29:33;;;;;;;;;;;;;;;-142.75;65.97;76623.44;5115846;28;19916;-78
2021/05/09 00:31:59;;;;;;;;;;;;;;;-142.75;66.02;76625.41;5113482;28;19955;-78
2021/05/09 00:34:24;;;;;;;;;;;;;;;-142.75;65.93;76619.50;5095748;28;20322;-78
2021/05/09 00:36:49;;;;;;;;;;;;;;;-142.75;66.29;76623.44;5114756;28;19916;-79
2021/05/09 00:39:14;;;;;;;;;;;;;;;-142.75;66.17;76625.41;5114789;28;19916;-79
2021/05/09 00:41:39;;;;;;;;;;;;;;;-142.75;66.23;76633.28;5095910;28;19919;-79
2021/05/09 00:44:05;;;;;;;;;;;;;;;-142.75;66.58;76643.13;5114774;28;20428;-79
2021/05/09 00:46:30;;;;;;;;;;;;;;;-142.75;66.69;76664.78;5114677;28;19916;-78
2021/05/09 00:48:57;;;;;;;;;;;;;;;-142.75;66.94;76660.84;5115283;28;20045;-78
2021/05/09 00:51:22;;;;;;;;;;;;;;;-142.75;67.01;76656.91;5095972;28;19959;-77
2021/05/09 00:53:48;;;;;;;;;;;;;;;-142.75;67.13;76688.41;5114503;28;19960;-77
2021/05/09 00:56:15;;;;;;;;;;;;;;;-142.75;67.24;76704.16;5097048;28;19919;-79
2021/05/09 00:58:42;;;;;;;;;;;;;;;-142.75;67.38;76715.97;5096544;28;20289;-78
2021/05/09 01:01:08;;;;;;;;;;;;;;;-142.75;67.45;76692.34;5111760;28;19920;-78
2021/05/09 01:03:34;;;;;;;;;;;;;;;-142.75;67.38;76692.34;5114234;28;20293;-78
2021/05/09 01:06:00;;;;;;;;;;;;;;;-142.75;67.65;76696.28;5114238;28;20359;-79
2021/05/09 01:08:27;;;;;;;;;;;;;;;-142.75;67.69;76692.34;5096000;28;19959;-78
2021/05/09 01:10:52;;;;;;;;;;;;;;;-142.75;67.86;76696.28;5110991;28;19942;-78
2021/05/09 01:13:17;;;;;;;;;;;;;;;-142.75;67.93;76702.19;5095838;28;20440;-78
2021/05/09 01:15:42;;;;;;;;;;;;;;;-142.75;67.56;76676.59;5095457;28;19916;-78
2021/05/09 01:18:08;;;;;;;;;;;;;;;-142.75;67.29;76654.94;5113955;28;19915;-78
2021/05/09 01:20:34;;;;;;;;;;;;;;;-142.75;66.91;76641.16;5113211;28;19920;-79
2021/05/09 01:22:59;;;;;;;;;;;;;;;-142.75;66.57;76595.88;5113465;28;19916;-79
2021/05/09 01:25:24;;;;;;;;;;;;;;;-142.75;66.30;76599.81;5114390;28;19923;-78
2021/05/09 01:27:49;;;;;;;;;;;;;;;-142.75;66.48;76611.63;5115117;28;19915;-79
2021/05/09 01:30:15;;;;;;;;;;;;;;;-142.75;66.67;76609.66;5114121;28;19915;-78
2021/05/09 01:32:40;;;;;;;;;;;;;;;-142.75;66.83;76613.59;5094926;28;20438;-78
2021/05/09 01:35:06;;;;;;;;;;;;;;;-142.75;66.84;76601.78;5113880;28;19998;-79
2021/05/09 01:37:31;;;;;;;;;;;;;;;-142.75;66.95;76593.91;5113683;28;19983;-78
2021/05/09 01:39:56;;;;;;;;;;;;;;;-142.75;66.38;76566.34;5113426;28;19916;-78
2021/05/09 01:42:22;;;;;;;;;;;;;;;-142.75;66.19;76568.31;5113178;28;19919;-79
2021/05/09 01:44:51;;;;;;;;;;;;;;;-142.75;66.64;76597.84;5095048;28;20377;-78
2021/05/09 01:47:16;;;;;;;;;;;;;;;-142.75;66.92;76611.63;5095591;28;19923;-78
2021/05/09 01:49:41;;;;;;;;;;;;;;;-142.75;67.11;76617.53;5113650;28;19915;-80
2021/05/09 01:52:06;;;;;;;;;;;;;;;-142.75;66.96;76613.59;5112969;28;19923;-79
2021/05/09 01:54:31;;;;;;;;;;;;;;;-142.75;66.62;76582.09;5113455;28;19965;-79
2021/05/09 01:56:56;;;;;;;;;;;;;;;-142.75;66.24;76564.38;5114031;28;20373;-78
2021/05/09 01:59:22;;;;;;;;;;;;;;;-142.75;66.51;76580.13;5113604;28;19924;-78
2021/05/09 02:01:47;;;;;;;;;;;;;;;-142.75;66.51;76582.09;5094263;28;20400;-77
2021/05/09 02:04:12;;;;;;;;;;;;;;;-142.75;66.40;76578.16;5094820;28;19919;-79
2021/05/09 02:06:37;;;;;;;;;;;;;;;-142.75;65.93;76556.50;5112541;28;19919;-78
2021/05/09 02:09:03;;;;;;;;;;;;;;;-142.75;65.81;76556.50;5112979;28;19953;-78
2021/05/09 02:11:28;;;;;;;;;;;;;;;-142.75;65.79;76560.44;5112260;28;19923;-79
2021/05/09 02:13:53;;;;;;;;;;;;;;;-142.75;66.20;76580.13;5094591;28;19924;-77
2021/05/09 02:16:18;;;;;;;;;;;;;;;-142.75;66.27;76580.13;5094377;28;19915;-79
2021/05/09 02:18:43;;;;;;;;;;;;;;;-142.75;66.17;76566.34;5112976;28;20328;-77
2021/05/09 02:21:09;;;;;;;;;;;;;;;-142.75;65.78;76556.50;5112311;28;19919;-78
2021/05/09 02:23:34;;;;;;;;;;;;;;;-142.75;65.65;76542.72;5112113;28;19916;-78
2021/05/09 02:25:59;;;;;;;;;;;;;;;-142.75;65.68;76548.63;5112605;28;19919;-79
2021/05/09 02:28:24;;;;;;;;;;;;;;;-142.75;65.78;76554.53;5094340;28;20027;-79
2021/05/09 02:30:49;;;;;;;;;;;;;;;-142.75;65.74;76544.69;5111631;28;19938;-78
2021/05/09 02:33:14;;;;;;;;;;;;;;;-142.75;65.28;76527.00;5093785;28;19922;-78
2021/05/09 02:35:40;;;;;;;;;;;;;;;-142.75;65.43;76544.69;5112083;28;19915;-79
2021/05/09 02:38:05;;;;;;;;;;;;;;;-142.75;65.66;76558.47;5111957;28;19916;-78
2021/05/09 02:40:30;;;;;;;;;;;;;;;-142.75;66.07;76578.16;5111261;28;20408;-78
2021/05/09 02:42:55;;;;;;;;;;;;;;;-142.75;66.05;76570.28;5111751;28;20067;-79
2021/05/09 02:45:21;;;;;;;;;;;;;;;-142.75;66.02;76548.63;5094041;28;19931;-78
2021/05/09 02:47:46;;;;;;;;;;;;;;;-142.75;65.93;76550.59;5111624;28;20395;-77
2021/05/09 02:50:11;;;;;;;;;;;;;;;-142.75;66.03;76566.34;5112612;28;19916;-78
2021/05/09 02:52:36;;;;;;;;;;;;;;;-142.75;65.99;76540.75;5111560;28;19930;-78
2021/05/09 02:55:03;;;;;;;;;;;;;;;-142.75;65.62;76558.47;5111743;28;20312;-77
2021/05/09 02:57:28;;;;;;;;;;;;;;;-142.75;65.93;76574.22;5112437;28;19916;-78
2021/05/09 02:59:53;;;;;;;;;;;;;;;-142.75;65.93;76560.44;5110942;28;20022;-79
2021/05/09 03:02:18;;;;;;;;;;;;;;;-142.75;65.96;76566.34;5110848;28;19927;-77
2021/05/09 03:04:44;;;;;;;;;;;;;;;-142.75;65.90;76564.38;5092966;28;19922;-78
2021/05/09 03:07:09;;;;;;;;;;;;;;;-142.75;66.09;76576.19;5111135;28;19919;-78
2021/05/09 03:09:34;;;;;;;;;;;;;;;-142.75;65.80;76550.59;5093303;28;20296;-78
2021/05/09 03:11:59;;;;;;;;;;;;;;;-142.75;65.68;76550.59;5111004;28;21287;-78
2021/05/09 03:14:25;;;;;;;;;;;;;;;-142.75;65.96;76570.28;5093022;28;19916;-79
2021/05/09 03:16:50;;;;;;;;;;;;;;;-142.75;66.11;76550.59;5111672;28;19930;-78
2021/05/09 03:19:16;;;;;;;;;;;;;;;-142.75;65.91;76550.59;5111000;28;19915;-77
2021/05/09 03:21:42;;;;;;;;;;;;;;;-142.75;65.87;76548.63;5110841;28;19963;-77
2021/05/09 03:24:08;;;;;;;;;;;;;;;-142.75;66.02;76548.63;5092819;28;19916;-78
2021/05/09 03:26:33;;;;;;;;;;;;;;;-142.75;65.94;76544.69;5111830;28;19938;-77
2021/05/09 03:28:58;;;;;;;;;;;;;;;-142.75;65.91;76534.84;5111411;28;20452;-77
2021/05/09 03:31:23;;;;;;;;;;;;;;;-142.75;65.80;76542.72;5110891;28;19916;-77
2021/05/09 03:33:49;;;;;;;;;;;;;;;-142.75;65.68;76534.84;5111383;28;19952;-77
2021/05/09 03:36:14;;;;;;;;;;;;;;;-142.75;65.72;76536.84;5110844;28;19916;-78
2021/05/09 03:38:39;;;;;;;;;;;;;;;-142.75;65.66;76540.75;5093364;28;20042;-78
2021/05/09 03:41:04;;;;;;;;;;;;;;;-142.75;65.54;76521.09;5092659;28;19923;-77
2021/05/09 03:43:29;;;;;;;;;;;;;;;-142.75;65.35;76523.06;5093099;28;20350;-77
2021/05/09 03:45:55;;;;;;;;;;;;;;;-142.75;65.59;76532.88;5092912;28;19915;-77
2021/05/09 03:48:20;;;;;;;;;;;;;;;-142.75;65.49;76523.06;5111283;28;19938;-77
2021/05/09 03:50:45;;;;;;;;;;;;;;;-142.75;65.08;76507.31;5110687;28;19915;-77
2021/05/09 03:53:10;;;;;;;;;;;;;;;-142.75;64.75;76495.50;5110456;28;20328;-77
2021/05/09 03:55:36;;;;;;;;;;;;;;;-142.75;64.72;76501.41;5092521;28;19981;-78
2021/05/09 03:58:01;;;;;;;;;;;;;;;-142.75;65.00;76519.13;5093123;28;19942;-78
2021/05/09 04:00:26;;;;;;;;;;;;;;;-142.75;65.13;76515.19;5110597;28;19927;-80
2021/05/09 04:02:51;;;;;;;;;;;;;;;-142.75;65.47;76532.88;5110414;28;19920;-76
2021/05/09 04:05:17;;;;;;;;;;;;;;;-142.75;65.51;76528.97;5092712;28;19922;-78
2021/05/09 04:07:42;;;;;;;;;;;;;;;-142.75;65.66;76532.88;5094619;28;19955;-78
2021/05/09 04:10:07;;;;;;;;;;;;;;;-142.75;65.86;76546.66;5096217;28;19939;-78
2021/05/09 04:12:32;;;;;;;;;;;;;;;-142.75;65.43;76515.19;5114271;28;19934;-77
2021/05/09 04:14:58;;;;;;;;;;;;;;;-142.75;65.15;76517.16;5114225;28;19938;-78
2021/05/09 04:17:23;;;;;;;;;;;;;;;-142.75;65.64;76530.91;5114871;28;19923;-77
2021/05/09 04:19:48;;;;;;;;;;;;;;;-142.75;65.37;76528.97;5114597;28;19922;-79
2021/05/09 04:22:13;;;;;;;;;;;;;;;-142.75;65.38;76525.03;5095539;28;20014;-78
2021/05/09 04:24:39;;;;;;;;;;;;;;;-142.75;65.53;76534.84;5114015;28;19924;-79
2021/05/09 04:27:04;;;;;;;;;;;;;;;-142.75;65.36;76527.00;5115324;28;20007;-77
2021/05/09 04:29:29;;;;;;;;;;;;;;;-142.75;64.45;76479.75;5114758;28;20020;-77
2021/05/09 04:31:54;;;;;;;;;;;;;;;-142.75;64.62;76479.75;5113804;28;19916;-77
2021/05/09 04:34:20;;;;;;;;;;;;;;;-142.75;64.48;76483.69;5096814;28;19947;-78
2021/05/09 04:36:45;;;;;;;;;;;;;;;-142.75;64.37;76479.75;5111975;28;19926;-77
2021/05/09 04:39:10;;;;;;;;;;;;;;;-142.75;64.73;76479.75;5095980;28;19923;-78
2021/05/09 04:41:35;;;;;;;;;;;;;;;-142.75;63.69;76442.34;5113374;28;19923;-77
2021/05/09 04:44:00;;;;;;;;;;;;;;;-142.75;63.68;76440.38;5114017;28;19937;-79
2021/05/09 04:46:25;;;;;;;;;;;;;;;-142.75;63.05;76412.81;5113879;28;19916;-78
2021/05/09 04:48:51;;;;;;;;;;;;;;;-142.75;63.15;76418.72;5114013;28;19922;-78
2021/05/09 04:51:16;;;;;;;;;;;;;;;-142.75;63.19;76418.72;5112912;28;19915;-78
2021/05/09 04:53:41;;;;;;;;;;;;;;;-142.75;63.25;76422.66;5113542;28;19981;-77
2021/05/09 04:56:07;;;;;;;;;;;;;;;-142.75;63.42;76424.63;5113853;28;20322;-78
2021/05/09 04:58:35;;;;;;;;;;;;;;;-142.75;63.13;76418.72;5096591;28;20369;-77
2021/05/09 05:01:01;;;;;;;;;;;;;;;-142.75;63.17;76412.81;5094614;28;20273;-77
2021/05/09 05:03:29;;;;;;;;;;;;;;;-142.75;63.08;76408.88;5095442;28;19963;-78
2021/05/09 05:05:54;;;;;;;;;;;;;;;-142.75;62.90;76408.88;5113451;28;19923;-78
2021/05/09 05:08:20;;;;;;;;;;;;;;;-142.75;62.32;76387.22;5095125;28;19916;-78
2021/05/09 05:10:45;;;;;;;;;;;;;;;-142.75;62.55;76383.28;5094846;28;19951;-78
2021/05/09 05:13:20;;;;;;;;;;;;;;;-142.75;62.00;76359.66;5094841;28;20053;-78
2021/05/09 05:15:47;;;;;;;;;;;;;;;-142.75;61.48;76338.03;5113401;28;19931;-79
2021/05/09 05:18:12;;;;;;;;;;;;;;;-142.75;61.31;76310.47;5094932;28;19980;-77
2021/05/09 05:20:37;;;;;;;;;;;;;;;-142.75;60.73;76290.78;5112179;28;20424;-78
2021/05/09 05:23:03;;;;;;;;;;;;;;;-142.75;60.51;76300.63;5113204;28;19920;-78
2021/05/09 05:25:28;;;;;;;;;;;;;;;-142.75;61.00;76294.72;5113134;28;19923;-77
2021/05/09 05:27:53;;;;;;;;;;;;;;;-142.75;60.40;76275.03;5114421;28;19919;-78
2021/05/09 05:30:19;;;;;;;;;;;;;;;-142.75;61.18;76290.78;5112260;28;19923;-78
2021/05/09 05:32:46;;;;;;;;;;;;;;;-142.75;61.37;76288.81;5093511;22;19924;-82
2021/05/09 05:35:11;;;;;;;;;;;;;;;-142.75;61.75;76294.72;5070301;28;19921;-81
2021/05/09 05:37:36;;;;;;;;;;;;;;;-142.75;61.59;76286.84;5071909;28;19930;-81
2021/05/09 05:40:02;;;;;;;;;;;;;;;-142.75;60.72;76253.38;5069551;28;19939;-80
2021/05/09 05:42:27;;;;;;;;;;;;;;;-142.75;60.14;76219.91;5070788;28;19925;-81
2021/05/09 05:44:52;;;;;;;;;;;;;;;-142.75;60.89;76241.56;5066044;28;19921;-83
2021/05/09 05:47:18;;;;;;;;;;;;;;;-142.75;60.75;76227.78;5071628;28;19917;-82
2021/05/09 05:49:43;;;;;;;;;;;;;;;-142.75;60.97;76223.84;5069949;28;19951;-82
2021/05/09 05:52:08;;;;;;;;;;;;;;;-142.75;60.62;76219.91;5073350;28;19938;-83
2021/05/09 05:54:34;;;;;;;;;;;;;;;-142.75;61.18;76235.66;5070912;28;19928;-82
2021/05/09 05:56:59;;;;;;;;;;;;;;;-142.75;61.12;76239.59;5072383;28;19973;-83
2021/05/09 05:59:24;;;;;;;;;;;;;;;-142.75;61.20;76231.72;5067269;28;20003;-80
2021/05/09 06:01:50;;;;;;;;;;;;;;;-142.75;60.38;76196.31;5068711;28;19989;-80
2021/05/09 06:04:15;;;;;;;;;;;;;;;-142.75;60.75;76168.75;5065393;28;19955;-80
2021/05/09 06:06:41;;;;;;;;;;;;;;;-142.75;59.79;76164.81;5068118;28;19923;-80
2021/05/09 06:09:06;;;;;;;;;;;;;;;-142.75;60.31;76180.56;5069176;28;19916;-81
2021/05/09 06:11:31;;;;;;;;;;;;;;;-142.75;60.03;76156.94;5073327;28;20370;-81
2021/05/09 06:13:57;;;;;;;;;;;;;;;-142.75;59.68;76137.25;5066289;28;20524;-81
2021/05/09 06:16:22;;;;;;;;;;;;;;;-142.75;59.16;76119.53;5064688;28;19916;-81
2021/05/09 06:18:48;;;;;;;;;;;;;;;-142.75;59.77;76141.19;5065300;28;20290;-80
2021/05/09 06:21:13;;;;;;;;;;;;;;;-142.75;59.76;76149.06;5069417;28;20015;-81
2021/05/09 06:23:38;;;;;;;;;;;;;;;-142.75;59.71;76129.38;5067382;28;19932;-81
2021/05/09 06:26:04;;;;;;;;;;;;;;;-142.75;59.19;76109.69;5065055;28;19917;-78
2021/05/09 06:28:29;;;;;;;;;;;;;;;-142.75;58.94;76093.94;5063541;28;19921;-81
2021/05/09 06:30:54;;;;;;;;;;;;;;;-142.75;58.39;76068.38;5062579;28;19924;-80
2021/05/09 06:33:20;;;;;;;;;;;;;;;-142.75;58.15;76050.66;5064201;28;19920;-80
2021/05/09 06:35:45;;;;;;;;;;;;;;;-142.75;57.78;76044.75;5066268;28;19916;-81
2021/05/09 06:38:10;;;;;;;;;;;;;;;-142.75;57.46;76042.78;5062518;28;20360;-80
2021/05/09 06:40:36;;;;;;;;;;;;;;;-142.75;58.05;76078.19;5057625;28;19920;-83
2021/05/09 06:43:02;;;;;;;;;;;;;;;-142.75;58.85;76086.06;5067785;28;20293;-80
2021/05/09 06:45:31;;;;;;;;;;;;;;;-142.75;58.32;76058.53;5068022;28;19916;-81
2021/05/09 06:47:58;;;;;;;;;;;;;;;-142.75;58.32;76038.84;5061194;28;19921;-81
2021/05/09 06:50:24;;;;;;;;;;;;;;;-142.75;58.24;76032.94;5062976;28;19931;-81
2021/05/09 06:52:49;;;;;;;;;;;;;;;-142.75;58.14;75993.56;5059313;28;19916;-80
2021/05/09 06:55:14;;;;;;;;;;;;;;;-142.75;58.15;75987.66;5061203;28;19916;-81
2021/05/09 06:57:40;;;;;;;;;;;;;;;-142.75;57.42;75948.31;5064472;28;20033;-81
2021/05/09 07:00:07;;;;;;;;;;;;;;;-142.75;56.18;75897.13;5063998;28;19980;-81
2021/05/09 07:02:32;;;;;;;;;;;;;;;-142.75;56.04;75875.47;5043686;28;19924;-82
2021/05/09 07:04:57;;;;;;;;;;;;;;;-142.75;55.69;75775.09;5069675;28;19923;-82
2021/05/09 07:07:22;;;;;;;;;;;;;;;-142.75;53.38;75694.41;5058878;28;19917;-82
2021/05/09 07:09:47;;;;;;;;;;;;;;;-142.75;51.90;75633.41;5063583;28;19917;-80
2021/05/09 07:12:12;;;;;;;;;;;;;;;-142.75;51.15;75623.56;5063270;28;20263;-83
2021/05/09 07:14:38;;;;;;;;;;;;;;;-142.75;51.10;75531.06;5059358;28;20019;-83
2021/05/09 07:17:03;;;;;;;;;;;;;;;-142.75;51.05;75511.41;5058633;28;19917;-80
2021/05/09 07:19:28;;;;;;;;;;;;;;;-142.75;52.08;75594.06;5062993;28;19967;-82
2021/05/09 07:21:57;;;;;;;;;;;;;;;-142.75;53.02;75607.81;5061941;28;19979;-82
2021/05/09 07:24:23;;;;;;;;;;;;;;;-142.75;50.71;75501.56;5061140;28;19917;-81
2021/05/09 07:26:48;;;;;;;;;;;;;;;-142.75;50.29;75499.59;5062660;28;19943;-82
2021/05/09 07:29:13;;;;;;;;;;;;;;;-142.75;51.09;75554.69;5061470;28;19916;-82
2021/05/09 07:31:41;;;;;;;;;;;;;;;-142.75;53.03;75643.25;5057034;28;19927;-83
2021/05/09 07:34:06;;;;;;;;;;;;;;;-142.75;53.15;75664.91;5058923;28;19923;-82
2021/05/09 07:36:31;;;;;;;;;;;;;;;-142.75;54.16;75684.56;5066210;28;19924;-81
2021/05/09 07:38:57;;;;;;;;;;;;;;;-142.75;53.88;75676.69;5057738;28;19920;-81
2021/05/09 07:41:22;;;;;;;;;;;;;;;-142.75;54.66;75655.06;5064355;28;19921;-79
2021/05/09 07:43:48;;;;;;;;;;;;;;;-142.75;54.22;75635.38;5070559;28;20317;-81
2021/05/09 07:46:13;;;;;;;;;;;;;;;-142.75;53.87;75609.78;5058812;28;19920;-80
2021/05/09 07:48:38;;;;;;;;;;;;;;;-142.75;53.54;75613.72;5052359;28;19951;-80
2021/05/09 07:51:03;;;;;;;;;;;;;;;-142.75;51.17;75548.78;5055197;28;20403;-82
2021/05/09 07:53:28;;;;;;;;;;;;;;;-142.75;50.71;75472.03;5061758;28;20010;-81
2021/05/09 07:55:54;;;;;;;;;;;;;;;-142.75;49.62;75405.13;5060001;28;19917;-80
2021/05/09 07:58:20;;;;;;;;;;;;;;;-142.75;49.63;75436.59;5063864;28;20420;-81
2021/05/09 08:00:46;;;;;;;;;;;;;;;-142.75;49.86;75440.53;5064020;28;19926;-81
2021/05/09 08:03:12;;;;;;;;;;;;;;;-142.75;49.01;75405.13;5058375;28;20003;-79
2021/05/09 08:05:37;;;;;;;;;;;;;;;-142.75;47.70;75267.38;5064827;28;19931;-79
2021/05/09 08:08:02;;;;;;;;;;;;;;;-142.75;46.25;75228.00;5068547;28;19916;-80
2021/05/09 08:10:31;;;;;;;;;;;;;;;-142.75;47.48;75196.53;5058217;28;20444;-80
2021/05/09 08:12:56;;;;;;;;;;;;;;;-142.75;45.88;75147.34;5065731;28;20374;-81
2021/05/09 08:15:22;;;;;;;;;;;;;;;-142.75;46.06;75198.50;5064297;28;19943;-80
2021/05/09 08:17:48;;;;;;;;;;;;;;;-142.75;47.44;75277.22;5059006;28;19931;-81
2021/05/09 08:20:14;;;;;;;;;;;;;;;-142.75;47.90;75302.78;5066395;28;20416;-80
2021/05/09 08:22:39;;;;;;;;;;;;;;;-142.75;48.63;75346.09;5062145;28;19921;-81
2021/05/09 08:25:05;;;;;;;;;;;;;;;-142.75;47.99;75263.44;5063821;28;20306;-81
2021/05/09 08:27:33;;;;;;;;;;;;;;;-142.75;46.42;75168.97;5064112;28;20397;-83
2021/05/09 08:29:58;;;;;;;;;;;;;;;-142.75;45.28;75149.31;5062121;28;19989;-82
2021/05/09 08:32:23;;;;;;;;;;;;;;;-142.75;46.83;75261.47;5063387;28;19940;-82
2021/05/09 08:34:49;;;;;;;;;;;;;;;-142.75;46.25;75149.31;5069287;28;20396;-81
2021/05/09 08:37:14;;;;;;;;;;;;;;;-142.75;45.42;75080.44;5067901;28;19924;-81
2021/05/09 08:39:40;;;;;;;;;;;;;;;-142.75;44.84;75060.75;5061895;28;19921;-82
2021/05/09 08:42:05;;;;;;;;;;;;;;;-142.75;44.46;75076.50;5065590;28;19951;-82
2021/05/09 08:44:33;;;;;;;;;;;;;;;-142.75;45.51;75033.22;5066954;28;19942;-80
2021/05/09 08:46:59;;;;;;;;;;;;;;;-142.75;43.23;74907.28;5061462;28;19916;-82
2021/05/09 08:49:25;;;;;;;;;;;;;;;-142.75;43.54;74985.97;5066772;28;19923;-81
2021/05/09 08:51:50;;;;;;;;;;;;;;;-142.75;44.58;75070.59;5064507;28;19921;-80
2021/05/09 08:54:16;;;;;;;;;;;;;;;-142.75;45.03;75123.72;5062025;28;19924;-81
2021/05/09 08:56:41;;;;;;;;;;;;;;;-142.75;46.33;75170.94;5062211;28;19947;-81
2021/05/09 08:59:08;;;;;;;;;;;;;;;-142.75;44.33;75143.41;5055386;28;19917;-81
2021/05/09 09:01:34;;;;;;;;;;;;;;;-142.75;45.37;75165.03;5067709;28;19989;-82
2021/05/09 09:03:59;;;;;;;;;;;;;;;-142.75;46.49;75200.47;5064116;28;20011;-81
2021/05/09 09:06:44;;;;;;;;;;;;;;;-142.75;45.76;75176.84;5062494;28;19963;-80
2021/05/09 09:09:19;;;;;;;;;;;;;;;-142.75;45.14;75117.81;5058256;28;19960;-81
2021/05/09 09:11:51;;;;;;;;;;;;;;;-142.75;46.56;75052.88;5066057;28;20337;-82
2021/05/09 09:14:16;;;;;;;;;;;;;;;-142.75;44.00;74956.47;5063569;28;19939;-80
2021/05/09 09:16:42;;;;;;;;;;;;;;;-142.75;42.36;74891.53;5065479;28;19916;-81
2021/05/09 09:19:07;;;;;;;;;;;;;;;-142.75;42.42;74879.72;5065509;28;19977;-79
2021/05/09 09:21:32;;;;;;;;;;;;;;;-142.75;42.75;74875.78;5064098;28;19921;-80
2021/05/09 09:24:06;;;;;;;;;;;;;;;-142.75;43.16;74854.16;5061932;28;20389;-81
2021/05/09 09:26:40;;;;;;;;;;;;;;;-142.75;44.14;74913.19;5060440;28;20069;-78
2021/05/09 09:29:19;;;;;;;;;;;;;;;-142.75;42.22;74742.00;5070927;28;20386;-80
2021/05/09 09:31:45;;;;;;;;;;;;;;;-142.75;40.96;74629.84;5063474;28;19917;-80
2021/05/09 09:34:11;;;;;;;;;;;;;;;-142.75;41.72;74724.28;5067517;28;19960;-79
2021/05/09 09:36:37;;;;;;;;;;;;;;;-142.75;40.74;74669.19;5068699;28;19942;-79
2021/05/09 09:39:03;;;;;;;;;;;;;;;-142.75;40.46;74559.00;5067447;28;19917;-78
2021/05/09 09:41:28;;;;;;;;;;;;;;;-142.75;39.34;74553.13;5062416;28;20321;-78
2021/05/09 09:44:11;;;;;;;;;;;;;;;-142.75;40.70;74543.28;5064793;28;19916;-78
2021/05/09 09:46:37;;;;;;;;;;;;;;;-142.75;39.35;74501.97;5066796;28;20283;-78
2021/05/09 09:49:04;;;;;;;;;;;;;;;-142.75;39.49;74529.50;5054848;28;19917;-77
2021/05/09 09:51:46;;;;;;;;;;;;;;;-142.75;39.93;74515.72;5059370;28;19939;-78
2021/05/09 09:54:28;;;;;;;;;;;;;;;-142.75;39.55;74594.44;5062896;28;20301;-78
2021/05/09 09:56:54;;;;;;;;;;;;;;;-142.75;41.01;74639.69;5066958;28;19920;-77
2021/05/09 09:59:19;;;;;;;;;;;;;;;-142.75;38.27;74480.31;5068736;28;20105;-78
2021/05/09 10:01:45;;;;;;;;;;;;;;;-142.75;37.66;74415.38;5061898;28;20464;-78
2021/05/09 10:04:10;;;;;;;;;;;;;;;-142.75;38.36;74277.69;5056426;28;19921;-78
2021/05/09 10:06:39;;;;;;;;;;;;;;;-142.75;36.83;74153.72;5053357;28;19925;-78
2021/05/09 10:09:05;;;;;;;;;;;;;;;-142.75;35.35;74075.03;5052114;28;19963;-77
2021/05/09 10:11:30;;;;;;;;;;;;;;;-142.75;36.28;73980.63;5057832;28;19921;-78
2021/05/09 10:13:56;;;;;;;;;;;;;;;-142.75;36.29;74425.22;5053758;28;20007;-78
2021/05/09 10:16:22;;;;;;;;;;;;;;;-142.75;39.29;74440.97;5054647;28;19925;-77
2021/05/09 10:18:53;;;;;;;;;;;;;;;-142.75;38.80;74657.38;5056697;28;19916;-78
2021/05/09 10:21:25;;;;;;;;;;;;;;;-142.75;41.11;74789.22;5059157;28;19974;-78
2021/05/09 10:24:09;;;;;;;;;;;;;;;-142.75;43.19;74889.56;5069072;28;20393;-78
2021/05/09 10:26:48;;;;;;;;;;;;;;;-142.75;43.66;74952.53;5058491;28;20283;-77
2021/05/09 10:29:32;;;;;;;;;;;;;;;-142.75;43.77;74956.47;5061314;28;20433;-76
2021/05/09 10:31:58;;;;;;;;;;;;;;;-142.75;44.07;74999.75;5059103;28;19924;-78
2021/05/09 10:34:42;;;;;;;;;;;;;;;-142.75;45.14;75015.50;5056956;28;20358;-75
2021/05/09 10:37:07;;;;;;;;;;;;;;;-142.75;46.40;75027.31;5057112;28;21415;-77
2021/05/09 10:39:32;;;;;;;;;;;;;;;-142.75;46.83;75017.47;5059410;28;20007;-77
2021/05/09 10:42:00;;;;;;;;;;;;;;;-142.75;49.70;74924.97;5058339;28;19928;-80
2021/05/09 10:44:38;;;;;;;;;;;;;;;-142.75;48.36;74881.69;5059202;28;19920;-81
2021/05/09 10:47:04;;;;;;;;;;;;;;;-142.75;45.47;74789.22;5054508;28;19916;-81
2021/05/09 10:49:29;;;;;;;;;;;;;;;-142.75;45.69;74889.56;5057996;28;19920;-81
2021/05/09 10:51:54;;;;;;;;;;;;;;;-142.75;47.93;74924.97;5057232;28;19920;-81
2021/05/09 10:54:21;;;;;;;;;;;;;;;-142.75;47.71;74964.34;5058405;28;19917;-80
2021/05/09 10:56:47;;;;;;;;;;;;;;;-142.75;48.34;75025.34;5056995;28;19936;-81
2021/05/09 10:59:12;;;;;;;;;;;;;;;-142.75;50.61;75100.09;5058114;28;20326;-82
2021/05/09 11:01:37;;;;;;;;;;;;;;;-142.75;53.13;75082.41;5059270;28;20409;-79
2021/05/09 11:04:04;;;;;;;;;;;;;;;-142.75;49.79;74948.59;5064386;28;20019;-84
2021/05/09 11:06:34;;;;;;;;;;;;;;;-142.75;49.48;74897.44;5068393;28;19924;-81
2021/05/09 11:09:13;;;;;;;;;;;;;;;-142.75;47.48;74834.47;5061230;28;20301;-80
2021/05/09 11:11:38;;;;;;;;;;;;;;;-142.75;46.18;74814.78;5057778;28;19965;-79
2021/05/09 11:14:10;;;;;;;;;;;;;;;-142.75;46.73;74751.84;5062811;28;20006;-79
2021/05/09 11:16:36;;;;;;;;;;;;;;;-142.75;46.72;74826.59;5060460;28;19916;-78
2021/05/09 11:19:13;;;;;;;;;;;;;;;-142.75;47.04;74895.47;5059690;28;19916;-78
2021/05/09 11:21:44;;;;;;;;;;;;;;;-142.75;47.37;74889.56;5069269;28;19965;-77
2021/05/09 11:24:11;;;;;;;;;;;;;;;-142.75;46.92;74917.13;5059395;28;19920;-79
2021/05/09 11:26:39;;;;;;;;;;;;;;;-142.75;46.86;74964.34;5067485;28;20012;-79
2021/05/09 11:29:07;;;;;;;;;;;;;;;-142.75;49.51;74984.00;5057984;28;19923;-81
2021/05/09 11:31:33;;;;;;;;;;;;;;;-142.75;49.86;75031.25;5064406;28;19917;-80
2021/05/09 11:33:59;;;;;;;;;;;;;;;-142.75;48.99;75076.50;5090451;23;20366;-76
2021/05/09 11:36:25;;;;;;;;;;;;;;;-142.75;48.50;75117.81;5068386;28;19920;-77
2021/05/09 11:38:50;;;;;;;;;;;;;;;-142.75;51.71;75115.84;5063904;28;19920;-77
2021/05/09 11:41:15;;;;;;;;;;;;;;;-142.75;52.71;75125.69;5068479;28;19927;-78
2021/05/09 11:44:00;;;;;;;;;;;;;;;-142.75;51.46;75109.94;5065728;28;20297;-76
2021/05/09 11:46:32;;;;;;;;;;;;;;;-142.75;49.64;75033.22;5087111;28;19923;-77
2021/05/09 11:49:12;;;;;;;;;;;;;;;-142.75;50.58;74995.81;5088119;28;19922;-77
2021/05/09 11:51:46;;;;;;;;;;;;;;;-142.75;50.14;74980.06;5058692;28;19924;-77
2021/05/09 11:54:12;;;;;;;;;;;;;;;-142.75;49.41;74938.75;5083877;28;19927;-77
2021/05/09 11:56:49;;;;;;;;;;;;;;;-142.75;48.86;74964.34;5076483;28;19920;-76
2021/05/09 11:59:31;;;;;;;;;;;;;;;-142.75;49.30;74958.44;5053312;28;20375;-77
2021/05/09 12:01:56;;;;;;;;;;;;;;;-142.75;48.97;74940.72;5061793;28;19973;-77
2021/05/09 12:04:23;;;;;;;;;;;;;;;-142.75;49.44;74869.88;5081732;28;19916;-76
2021/05/09 12:06:48;;;;;;;;;;;;;;;-142.75;48.25;74814.78;5081406;28;19923;-77
2021/05/09 12:09:14;;;;;;;;;;;;;;;-142.75;48.41;74781.34;5083994;28;19916;-76
2021/05/09 12:11:39;;;;;;;;;;;;;;;-142.75;46.47;74761.66;5054785;28;19931;-76
2021/05/09 12:14:04;;;;;;;;;;;;;;;-142.75;47.07;74747.91;5062827;28;20377;-77
2021/05/09 12:16:45;;;;;;;;;;;;;;;-142.75;46.60;74728.22;5077626;28;19924;-78
2021/05/09 12:19:11;;;;;;;;;;;;;;;-142.75;45.56;74698.72;5087063;28;19935;-77
2021/05/09 12:21:36;;;;;;;;;;;;;;;-142.75;45.02;74718.38;5071776;28;19921;-78
2021/05/09 12:24:03;;;;;;;;;;;;;;;-142.75;46.58;74694.78;5079362;28;19916;-76